createdAt,value
2019-03-11T00:00:21.696Z,21.92
2019-03-11T00:01:21.694Z,21.93
2019-03-11T00:02:21.699Z,21.93
2019-03-11T00:03:21.750Z,21.92
2019-03-11T00:04:22.711Z,21.94
2019-03-11T00:05:21.763Z,21.93
2019-03-11T00:06:21.834Z,21.92
2019-03-11T00:07:21.773Z,21.92
2019-03-11T00:08:21.849Z,21.92
2019-03-11T00:09:21.874Z,21.92
2019-03-11T00:10:21.814Z,21.90
2019-03-11T00:11:21.838Z,21.91
2019-03-11T00:12:21.827Z,21.92
2019-03-11T00:13:21.914Z,21.91
2019-03-11T00:14:21.862Z,21.91
2019-03-11T00:15:21.896Z,21.91
2019-03-11T00:16:21.894Z,21.91
2019-03-11T00:17:21.972Z,21.91
2019-03-11T00:18:21.960Z,21.91
2019-03-11T00:19:21.937Z,21.90
2019-03-11T00:20:21.933Z,21.91
2019-03-11T00:21:22.021Z,21.91
2019-03-11T00:22:22.009Z,21.90
2019-03-11T00:23:21.965Z,21.90
2019-03-11T00:24:21.990Z,21.91
2019-03-11T00:25:22.004Z,21.90
2019-03-11T00:26:22.006Z,21.90
2019-03-11T00:27:22.096Z,21.89
2019-03-11T00:28:22.028Z,21.90
2019-03-11T00:29:22.054Z,21.89
2019-03-11T00:30:22.070Z,21.90
2019-03-11T00:31:22.073Z,21.90
2019-03-11T00:32:22.132Z,21.89
2019-03-11T00:33:22.110Z,21.88
2019-03-11T00:34:22.112Z,21.88
2019-03-11T00:35:22.120Z,21.90
2019-03-11T00:36:22.133Z,21.89
2019-03-11T00:37:22.200Z,21.88
2019-03-11T00:38:22.164Z,21.88
2019-03-11T00:39:22.199Z,21.88
2019-03-11T00:40:22.185Z,21.88
2019-03-11T00:41:22.190Z,21.88
2019-03-11T00:42:22.206Z,21.88
2019-03-11T00:43:22.285Z,21.87
2019-03-11T00:44:22.259Z,21.88
2019-03-11T00:45:24.145Z,21.88
2019-03-11T00:46:22.247Z,21.88
2019-03-11T00:47:22.255Z,21.87
2019-03-11T00:48:22.284Z,21.87
2019-03-11T00:49:22.327Z,21.87
2019-03-11T00:50:22.311Z,21.87
2019-03-11T00:51:22.312Z,21.86
2019-03-11T00:52:22.321Z,21.87
2019-03-11T00:53:22.409Z,21.85
2019-03-11T00:54:22.368Z,21.85
2019-03-11T00:55:22.402Z,21.86
2019-03-11T00:56:22.366Z,21.87
2019-03-11T00:57:22.442Z,21.87
2019-03-11T00:58:22.416Z,21.85
2019-03-11T00:59:22.425Z,21.85
2019-03-11T01:00:22.449Z,21.85
2019-03-11T01:01:22.445Z,21.85
2019-03-11T01:02:22.453Z,21.85
2019-03-11T01:03:22.459Z,21.84
2019-03-11T01:04:22.538Z,21.85
2019-03-11T01:05:22.498Z,21.84
2019-03-11T01:06:22.509Z,21.84
2019-03-11T01:07:22.503Z,21.84
2019-03-11T01:08:22.528Z,21.84
2019-03-11T01:09:22.543Z,21.83
2019-03-11T01:10:22.536Z,21.83
2019-03-11T01:11:22.561Z,21.84
2019-03-11T01:12:22.573Z,21.84
2019-03-11T01:13:22.628Z,21.83
2019-03-11T01:14:22.595Z,21.84
2019-03-11T01:15:22.603Z,21.83
2019-03-11T01:16:22.608Z,21.83
2019-03-11T01:17:22.639Z,21.83
2019-03-11T01:18:22.665Z,21.83
2019-03-11T01:19:22.675Z,21.83
2019-03-11T01:20:22.690Z,21.83
2019-03-11T01:21:22.738Z,21.84
2019-03-11T01:22:22.706Z,21.83
2019-03-11T01:23:22.703Z,21.83
2019-03-11T01:24:22.761Z,21.83
2019-03-11T01:25:22.733Z,21.84
2019-03-11T01:26:22.742Z,21.83
2019-03-11T01:27:22.745Z,21.84
2019-03-11T01:28:22.770Z,21.83
2019-03-11T01:29:22.843Z,21.83
2019-03-11T01:30:22.821Z,21.84
2019-03-11T01:31:22.786Z,21.84
2019-03-11T01:32:22.887Z,21.84
2019-03-11T01:33:22.858Z,21.84
2019-03-11T01:34:22.900Z,21.83
2019-03-11T01:35:22.881Z,21.84
2019-03-11T01:36:22.884Z,21.84
2019-03-11T01:37:22.869Z,21.85
2019-03-11T01:38:22.897Z,21.83
2019-03-11T01:39:22.912Z,21.83
2019-03-11T01:40:22.925Z,21.84
2019-03-11T01:41:22.920Z,21.83
2019-03-11T01:42:22.947Z,21.84
2019-03-11T01:43:22.958Z,21.83
2019-03-11T01:44:22.963Z,21.82
2019-03-11T01:45:22.984Z,21.84
2019-03-11T01:46:23.045Z,21.83
2019-03-11T01:47:23.075Z,21.84
2019-03-11T01:48:23.026Z,21.84
2019-03-11T01:49:24.067Z,21.83
2019-03-11T01:50:23.060Z,21.83
2019-03-11T01:51:23.036Z,21.84
2019-03-11T01:52:23.135Z,21.84
2019-03-11T01:53:23.075Z,21.84
2019-03-11T01:54:23.089Z,21.83
2019-03-11T01:55:23.150Z,21.83
2019-03-11T01:56:23.118Z,21.83
2019-03-11T01:57:23.159Z,21.83
2019-03-11T01:58:23.166Z,21.82
2019-03-11T01:59:23.142Z,21.83
2019-03-11T02:00:23.191Z,21.83
2019-03-11T02:01:23.178Z,21.83
2019-03-11T02:02:23.188Z,21.83
2019-03-11T02:03:23.206Z,21.83
2019-03-11T02:04:23.206Z,21.83
2019-03-11T02:05:23.246Z,21.82
2019-03-11T02:06:23.260Z,21.82
2019-03-11T02:07:23.290Z,21.82
2019-03-11T02:08:23.247Z,21.82
2019-03-11T02:09:23.285Z,21.83
2019-03-11T02:10:23.288Z,21.83
2019-03-11T02:11:23.305Z,21.82
2019-03-11T02:12:23.309Z,21.82
2019-03-11T02:13:23.384Z,21.83
2019-03-11T02:14:23.333Z,21.82
2019-03-11T02:15:23.364Z,21.82
2019-03-11T02:16:23.372Z,21.82
2019-03-11T02:17:23.370Z,21.82
2019-03-11T02:18:23.391Z,21.83
2019-03-11T02:19:23.391Z,21.82
2019-03-11T02:20:23.410Z,21.82
2019-03-11T02:21:23.418Z,21.82
2019-03-11T02:22:23.429Z,21.82
2019-03-11T02:23:23.437Z,21.82
2019-03-11T02:24:23.458Z,21.83
2019-03-11T02:25:23.480Z,21.82
2019-03-11T02:26:23.538Z,21.82
2019-03-11T02:27:23.503Z,21.82
2019-03-11T02:28:23.501Z,21.81
2019-03-11T02:29:23.516Z,21.83
2019-03-11T02:30:23.535Z,21.81
2019-03-11T02:31:23.558Z,21.82
2019-03-11T02:32:23.563Z,21.81
2019-03-11T02:33:23.575Z,21.82
2019-03-11T02:34:23.618Z,21.81
2019-03-11T02:35:23.610Z,21.81
2019-03-11T02:36:23.613Z,21.82
2019-03-11T02:37:23.614Z,21.81
2019-03-11T02:38:23.620Z,21.81
2019-03-11T02:39:23.712Z,21.80
2019-03-11T02:40:23.655Z,21.80
2019-03-11T02:41:23.680Z,21.82
2019-03-11T02:42:23.680Z,21.80
2019-03-11T02:43:23.686Z,21.81
2019-03-11T02:44:23.716Z,21.80
2019-03-11T02:45:23.707Z,21.81
2019-03-11T02:46:23.741Z,21.80
2019-03-11T02:47:23.755Z,21.81
2019-03-11T02:48:23.792Z,21.81
2019-03-11T02:49:23.766Z,21.80
2019-03-11T02:50:23.787Z,21.81
2019-03-11T02:51:23.820Z,21.80
2019-03-11T02:52:23.812Z,21.81
2019-03-11T02:53:23.845Z,21.80
2019-03-11T02:54:23.844Z,21.79
2019-03-11T02:55:23.865Z,21.80
2019-03-11T02:56:23.873Z,21.80
2019-03-11T02:57:23.870Z,21.80
2019-03-11T02:58:23.888Z,21.78
2019-03-11T02:59:23.885Z,21.79
2019-03-11T03:00:23.889Z,21.79
2019-03-11T03:01:23.909Z,21.79
2019-03-11T03:02:23.916Z,21.79
2019-03-11T03:03:23.969Z,21.80
2019-03-11T03:04:23.945Z,21.79
2019-03-11T03:05:23.953Z,21.78
2019-03-11T03:06:24.068Z,21.79
2019-03-11T03:07:23.973Z,21.79
2019-03-11T03:08:24.009Z,21.78
2019-03-11T03:09:23.996Z,21.78
2019-03-11T03:10:24.067Z,21.78
2019-03-11T03:11:24.062Z,21.78
2019-03-11T03:12:24.050Z,21.79
2019-03-11T03:13:24.094Z,21.78
2019-03-11T03:14:24.110Z,21.78
2019-03-11T03:15:24.066Z,21.79
2019-03-11T03:16:24.114Z,21.78
2019-03-11T03:17:24.093Z,21.78
2019-03-11T03:18:24.137Z,21.78
2019-03-11T03:19:24.132Z,21.78
2019-03-11T03:20:24.132Z,21.78
2019-03-11T03:21:24.160Z,21.78
2019-03-11T03:22:24.177Z,21.78
2019-03-11T03:23:24.174Z,21.78
2019-03-11T03:24:24.232Z,21.76
2019-03-11T03:25:33.736Z,21.77
2019-03-11T03:26:24.224Z,21.77
2019-03-11T03:27:24.191Z,21.76
2019-03-11T03:28:24.193Z,21.76
2019-03-11T03:29:24.217Z,21.76
2019-03-11T03:30:24.221Z,21.76
2019-03-11T03:31:24.228Z,21.77
2019-03-11T03:32:24.273Z,21.77
2019-03-11T03:33:24.230Z,21.75
2019-03-11T03:34:24.217Z,21.77
2019-03-11T03:35:24.227Z,21.76
2019-03-11T03:36:24.225Z,21.76
2019-03-11T03:37:24.223Z,21.76
2019-03-11T03:38:30.469Z,21.76
2019-03-11T03:39:24.208Z,21.75
2019-03-11T03:40:24.216Z,21.76
2019-03-11T03:41:24.237Z,21.75
2019-03-11T03:42:24.244Z,21.75
2019-03-11T03:43:24.240Z,21.75
2019-03-11T03:44:24.226Z,21.75
2019-03-11T03:45:24.204Z,21.75
2019-03-11T03:46:24.261Z,21.74
2019-03-11T03:47:24.230Z,21.74
2019-03-11T03:48:24.232Z,21.74
2019-03-11T03:49:24.231Z,21.74
2019-03-11T03:50:24.290Z,21.74
2019-03-11T03:51:24.249Z,21.74
2019-03-11T03:52:24.274Z,21.73
2019-03-11T03:53:24.251Z,21.73
2019-03-11T03:54:24.291Z,21.73
2019-03-11T03:55:24.289Z,21.72
2019-03-11T03:56:24.286Z,21.73
2019-03-11T03:57:24.317Z,21.73
2019-03-11T03:58:24.241Z,21.71
2019-03-11T03:59:24.240Z,21.72
2019-03-11T04:00:24.298Z,21.72
2019-03-11T04:01:24.282Z,21.71
2019-03-11T04:02:24.234Z,21.72
2019-03-11T04:03:24.265Z,21.71
2019-03-11T04:04:24.295Z,21.72
2019-03-11T04:05:24.243Z,21.72
2019-03-11T04:06:24.321Z,21.72
2019-03-11T04:07:24.261Z,21.70
2019-03-11T04:08:24.268Z,21.71
2019-03-11T04:09:24.267Z,21.71
2019-03-11T04:10:24.257Z,21.71
2019-03-11T04:11:24.303Z,21.70
2019-03-11T04:12:24.246Z,21.70
2019-03-11T04:13:24.277Z,21.70
2019-03-11T04:14:24.247Z,21.70
2019-03-11T04:15:24.279Z,21.70
2019-03-11T04:16:24.279Z,21.71
2019-03-11T04:17:24.336Z,21.71
2019-03-11T04:18:24.283Z,21.69
2019-03-11T04:19:24.260Z,21.69
2019-03-11T04:20:24.285Z,21.70
2019-03-11T04:21:24.450Z,21.70
2019-03-11T04:22:24.294Z,21.69
2019-03-11T04:23:24.255Z,21.70
2019-03-11T04:24:24.298Z,21.69
2019-03-11T04:25:24.325Z,21.69
2019-03-11T04:26:24.326Z,21.69
2019-03-11T04:27:24.277Z,21.69
2019-03-11T04:28:24.264Z,21.69
2019-03-11T04:29:24.299Z,21.68
2019-03-11T04:30:24.328Z,21.67
2019-03-11T04:31:24.306Z,21.68
2019-03-11T04:32:24.296Z,21.67
2019-03-11T04:33:24.286Z,21.68
2019-03-11T04:34:24.277Z,21.67
2019-03-11T04:35:24.297Z,21.67
2019-03-11T04:36:24.292Z,21.66
2019-03-11T04:37:24.308Z,21.67
2019-03-11T04:38:24.273Z,21.66
2019-03-11T04:39:24.291Z,21.67
2019-03-11T04:40:24.283Z,21.66
2019-03-11T04:41:24.349Z,21.66
2019-03-11T04:42:24.302Z,21.66
2019-03-11T04:43:24.301Z,21.65
2019-03-11T04:44:24.309Z,21.65
2019-03-11T04:45:24.318Z,21.66
2019-03-11T04:46:24.355Z,21.65
2019-03-11T04:47:24.303Z,21.65
2019-03-11T04:48:24.302Z,21.66
2019-03-11T04:49:24.299Z,21.66
2019-03-11T04:50:24.322Z,21.66
2019-03-11T04:51:24.310Z,21.66
2019-03-11T04:52:24.330Z,21.66
2019-03-11T04:53:24.306Z,21.67
2019-03-11T04:54:24.315Z,21.67
2019-03-11T04:55:24.305Z,21.67
2019-03-11T04:56:24.380Z,21.67
2019-03-11T04:57:24.304Z,21.68
2019-03-11T04:58:24.318Z,21.68
2019-03-11T04:59:24.313Z,21.68
2019-03-11T05:00:24.324Z,21.69
2019-03-11T05:01:24.322Z,21.68
2019-03-11T05:02:24.350Z,21.68
2019-03-11T05:03:24.309Z,21.70
2019-03-11T05:04:24.328Z,21.69
2019-03-11T05:05:24.311Z,21.69
2019-03-11T05:06:24.313Z,21.70
2019-03-11T05:07:24.346Z,21.71
2019-03-11T05:08:24.369Z,21.72
2019-03-11T05:09:24.352Z,21.72
2019-03-11T05:10:24.330Z,21.72
2019-03-11T05:11:24.383Z,21.72
2019-03-11T05:12:24.351Z,21.72
2019-03-11T05:13:24.443Z,21.73
2019-03-11T05:14:24.395Z,21.72
2019-03-11T05:15:24.451Z,21.73
2019-03-11T05:16:24.430Z,21.75
2019-03-11T05:17:24.439Z,21.74
2019-03-11T05:18:24.431Z,21.76
2019-03-11T05:19:24.398Z,21.75
2019-03-11T05:20:24.434Z,21.76
2019-03-11T05:21:24.467Z,21.76
2019-03-11T05:22:24.472Z,21.76
2019-03-11T05:23:24.435Z,21.78
2019-03-11T05:24:24.398Z,21.77
2019-03-11T05:25:24.454Z,21.79
2019-03-11T05:26:24.431Z,21.79
2019-03-11T05:27:24.435Z,21.79
2019-03-11T05:28:24.465Z,21.79
2019-03-11T05:29:24.437Z,21.80
2019-03-11T05:30:24.419Z,21.80
2019-03-11T05:31:24.414Z,21.79
2019-03-11T05:32:24.462Z,21.80
2019-03-11T05:33:24.411Z,21.79
2019-03-11T05:34:24.423Z,21.79
2019-03-11T05:35:24.412Z,21.80
2019-03-11T05:36:24.394Z,21.80
2019-03-11T05:37:24.443Z,21.80
2019-03-11T05:38:24.410Z,21.80
2019-03-11T05:39:24.419Z,21.80
2019-03-11T05:40:24.405Z,21.80
2019-03-11T05:41:24.483Z,21.80
2019-03-11T05:42:24.484Z,21.79
2019-03-11T05:43:24.439Z,21.79
2019-03-11T05:44:24.434Z,21.79
2019-03-11T05:45:24.624Z,21.78
2019-03-11T05:46:24.444Z,21.78
2019-03-11T05:47:24.473Z,21.79
2019-03-11T05:48:24.564Z,21.79
2019-03-11T05:49:24.445Z,21.78
2019-03-11T05:50:24.495Z,21.79
2019-03-11T05:51:31.412Z,21.79
2019-03-11T05:52:24.455Z,21.76
2019-03-11T05:53:24.455Z,21.77
2019-03-11T05:54:24.567Z,21.78
2019-03-11T05:55:24.467Z,21.78
2019-03-11T05:56:45.249Z,21.77
2019-03-11T05:57:45.254Z,21.78
2019-03-11T05:58:45.245Z,21.76
2019-03-11T05:59:45.275Z,21.78
2019-03-11T06:00:45.294Z,21.79
2019-03-11T06:01:45.234Z,21.78
2019-03-11T06:02:45.271Z,21.78
2019-03-11T06:03:45.303Z,21.78
2019-03-11T06:04:45.295Z,21.78
2019-03-11T06:05:45.296Z,21.78
2019-03-11T06:06:45.244Z,21.78
2019-03-11T06:07:45.263Z,21.78
2019-03-11T06:08:45.263Z,21.77
2019-03-11T06:09:45.248Z,21.78
2019-03-11T06:10:45.290Z,21.76
2019-03-11T06:11:45.285Z,21.77
2019-03-11T06:12:45.279Z,21.78
2019-03-11T06:13:45.316Z,21.77
2019-03-11T06:14:45.304Z,21.77
2019-03-11T06:15:45.271Z,21.78
2019-03-11T06:16:45.280Z,21.76
2019-03-11T06:17:45.327Z,21.77
2019-03-11T06:18:45.277Z,21.78
2019-03-11T06:19:45.885Z,21.78
2019-03-11T06:20:45.300Z,21.77
2019-03-11T06:21:45.299Z,21.77
2019-03-11T06:22:45.279Z,21.78
2019-03-11T06:23:45.333Z,21.77
2019-03-11T06:24:45.280Z,21.78
2019-03-11T06:25:45.320Z,21.78
2019-03-11T06:26:45.308Z,21.78
2019-03-11T06:27:45.282Z,21.78
2019-03-11T06:28:45.273Z,21.78
2019-03-11T06:29:45.273Z,21.79
2019-03-11T06:30:45.317Z,21.78
2019-03-11T06:31:45.316Z,21.77
2019-03-11T06:32:45.309Z,21.79
2019-03-11T06:33:45.302Z,21.78
2019-03-11T06:34:45.314Z,21.78
2019-03-11T06:35:45.316Z,21.79
2019-03-11T06:36:45.297Z,21.79
2019-03-11T06:37:45.320Z,21.79
2019-03-11T06:38:45.358Z,21.78
2019-03-11T06:39:45.320Z,21.78
2019-03-11T06:40:46.114Z,21.78
2019-03-11T06:41:45.294Z,21.78
2019-03-11T06:42:45.290Z,21.78
2019-03-11T06:43:45.319Z,21.77
2019-03-11T06:44:45.289Z,21.78
2019-03-11T06:45:45.353Z,21.77
2019-03-11T06:46:46.104Z,21.78
2019-03-11T06:47:45.295Z,21.76
2019-03-11T06:48:45.325Z,21.78
2019-03-11T06:49:45.342Z,21.78
2019-03-11T06:50:45.294Z,21.77
2019-03-11T06:51:45.308Z,21.78
2019-03-11T06:52:45.333Z,21.78
2019-03-11T06:53:45.340Z,21.78
2019-03-11T06:54:45.341Z,21.79
2019-03-11T06:55:45.322Z,21.79
2019-03-11T06:56:45.353Z,21.80
2019-03-11T06:57:45.351Z,21.79
2019-03-11T06:58:45.358Z,21.80
2019-03-11T06:59:45.330Z,21.80
2019-03-11T07:00:45.365Z,21.82
2019-03-11T07:01:45.366Z,21.82
2019-03-11T07:02:45.518Z,21.82
2019-03-11T07:03:45.379Z,21.82
2019-03-11T07:04:45.349Z,21.83
2019-03-11T07:05:45.330Z,21.84
2019-03-11T07:06:45.373Z,21.84
2019-03-11T07:07:45.364Z,21.85
2019-03-11T07:08:45.351Z,21.87
2019-03-11T07:09:45.378Z,21.87
2019-03-11T07:10:45.381Z,21.88
2019-03-11T07:11:45.340Z,21.90
2019-03-11T07:12:45.362Z,21.89
2019-03-11T07:13:45.405Z,21.90
2019-03-11T07:14:45.369Z,21.92
2019-03-11T07:15:45.359Z,21.91
2019-03-11T07:16:45.365Z,21.93
2019-03-11T07:17:45.370Z,21.94
2019-03-11T07:18:45.408Z,21.93
2019-03-11T07:19:45.368Z,21.95
2019-03-11T07:20:45.343Z,21.96
2019-03-11T07:21:45.379Z,21.95
2019-03-11T07:22:45.343Z,21.97
2019-03-11T07:23:45.413Z,21.98
2019-03-11T07:24:45.386Z,21.98
2019-03-11T07:25:45.379Z,21.99
2019-03-11T07:26:45.398Z,22.00
2019-03-11T07:27:45.367Z,21.99
2019-03-11T07:28:45.392Z,22.00
2019-03-11T07:29:45.369Z,22.01
2019-03-11T07:30:45.357Z,22.01
2019-03-11T07:31:45.384Z,22.02
2019-03-11T07:32:45.385Z,22.02
2019-03-11T07:33:45.396Z,22.03
2019-03-11T07:34:45.455Z,22.03
2019-03-11T07:35:45.387Z,22.04
2019-03-11T07:36:45.347Z,22.04
2019-03-11T07:37:45.359Z,22.04
2019-03-11T07:38:45.422Z,22.05
2019-03-11T07:39:45.423Z,22.05
2019-03-11T07:40:45.392Z,22.05
2019-03-11T07:41:45.384Z,22.05
2019-03-11T07:42:45.385Z,22.06
2019-03-11T07:43:45.401Z,22.06
2019-03-11T07:44:45.409Z,22.07
2019-03-11T07:45:45.380Z,22.07
2019-03-11T07:46:45.720Z,22.07
2019-03-11T07:47:45.424Z,22.07
2019-03-11T07:48:45.417Z,22.07
2019-03-11T07:49:45.411Z,22.09
2019-03-11T07:50:45.373Z,22.09
2019-03-11T07:51:45.373Z,22.09
2019-03-11T07:52:45.403Z,22.10
2019-03-11T07:53:45.453Z,22.10
2019-03-11T07:54:45.433Z,22.10
2019-03-11T07:55:45.426Z,22.10
2019-03-11T07:56:45.418Z,22.11
2019-03-11T07:57:45.387Z,22.11
2019-03-11T07:58:45.436Z,22.12
2019-03-11T07:59:45.454Z,22.11
2019-03-11T08:00:53.343Z,22.11
2019-03-11T08:01:45.382Z,22.13
2019-03-11T08:02:45.402Z,22.11
2019-03-11T08:03:45.381Z,22.12
2019-03-11T08:04:45.399Z,22.12
2019-03-11T08:05:45.394Z,22.11
2019-03-11T08:06:45.427Z,22.12
2019-03-11T08:07:45.421Z,22.11
2019-03-11T08:08:45.446Z,22.11
2019-03-11T08:09:45.463Z,22.12
2019-03-11T08:10:45.430Z,22.11
2019-03-11T08:11:45.434Z,22.11
2019-03-11T08:12:45.444Z,22.11
2019-03-11T08:13:45.392Z,22.10
2019-03-11T08:14:45.427Z,22.10
2019-03-11T08:15:45.408Z,22.10
2019-03-11T08:16:45.414Z,22.09
2019-03-11T08:17:45.427Z,22.09
2019-03-11T08:18:45.436Z,22.09
2019-03-11T08:19:45.436Z,22.08
2019-03-11T08:20:45.473Z,22.09
2019-03-11T08:21:45.456Z,22.09
2019-03-11T08:22:45.474Z,22.10
2019-03-11T08:23:45.459Z,22.09
2019-03-11T08:24:45.459Z,22.09
2019-03-11T08:25:45.474Z,22.10
2019-03-11T08:26:45.459Z,22.09
2019-03-11T08:27:45.489Z,22.08
2019-03-11T08:28:45.458Z,22.08
2019-03-11T08:29:45.457Z,22.08
2019-03-11T08:30:45.441Z,22.09
2019-03-11T08:31:45.469Z,22.07
2019-03-11T08:32:45.429Z,22.07
2019-03-11T08:33:45.438Z,22.09
2019-03-11T08:34:45.462Z,22.09
2019-03-11T08:35:45.495Z,22.09
2019-03-11T08:36:45.442Z,22.09
2019-03-11T08:37:45.469Z,22.09
2019-03-11T08:38:45.437Z,22.08
2019-03-11T08:39:45.441Z,22.08
2019-03-11T08:40:45.486Z,22.09
2019-03-11T08:41:45.443Z,22.08
2019-03-11T08:42:45.439Z,22.09
2019-03-11T08:43:45.449Z,22.09
2019-03-11T08:44:45.455Z,22.07
2019-03-11T08:45:45.492Z,22.08
2019-03-11T08:46:45.483Z,22.07
2019-03-11T08:47:45.468Z,22.08
2019-03-11T08:48:45.433Z,22.08
2019-03-11T08:49:45.487Z,22.07
2019-03-11T08:50:45.466Z,22.07
2019-03-11T08:51:45.486Z,22.07
2019-03-11T08:52:45.490Z,22.09
2019-03-11T08:53:45.487Z,22.08
2019-03-11T08:54:45.475Z,22.07
2019-03-11T08:55:45.493Z,22.07
2019-03-11T08:56:45.484Z,22.07
2019-03-11T08:57:45.490Z,22.06
2019-03-11T08:58:45.469Z,22.05
2019-03-11T08:59:45.474Z,22.06
2019-03-11T09:00:45.453Z,22.07
2019-03-11T09:01:45.510Z,22.05
2019-03-11T09:02:45.492Z,22.04
2019-03-11T09:03:47.766Z,22.05
2019-03-11T09:04:45.486Z,22.05
2019-03-11T09:05:45.505Z,22.04
2019-03-11T09:06:45.510Z,22.04
2019-03-11T09:07:45.514Z,22.04
2019-03-11T09:08:45.486Z,22.03
2019-03-11T09:09:45.500Z,22.04
2019-03-11T09:10:45.505Z,22.03
2019-03-11T09:11:45.489Z,22.03
2019-03-11T09:12:45.512Z,22.03
2019-03-11T09:13:45.501Z,22.04
2019-03-11T09:14:45.498Z,22.04
2019-03-11T09:15:45.507Z,22.04
2019-03-11T09:16:45.492Z,22.04
2019-03-11T09:17:45.483Z,22.04
2019-03-11T09:18:45.508Z,22.04
2019-03-11T09:19:45.507Z,22.04
2019-03-11T09:20:45.524Z,22.05
2019-03-11T09:21:45.545Z,22.04
2019-03-11T09:22:45.623Z,22.04
2019-03-11T09:23:45.538Z,22.04
2019-03-11T09:24:45.570Z,22.05
2019-03-11T09:25:45.579Z,22.05
2019-03-11T09:26:45.603Z,22.04
2019-03-11T09:27:45.611Z,22.03
2019-03-11T09:28:45.617Z,22.05
2019-03-11T09:29:45.619Z,22.04
2019-03-11T09:30:45.614Z,22.04
2019-03-11T09:31:45.642Z,22.04
2019-03-11T09:32:45.671Z,22.05
2019-03-11T09:33:45.671Z,22.04
2019-03-11T09:34:45.646Z,22.04
2019-03-11T09:35:45.698Z,22.05
2019-03-11T09:36:45.727Z,22.04
2019-03-11T09:37:45.701Z,22.05
2019-03-11T09:38:45.740Z,22.04
2019-03-11T09:39:45.718Z,22.03
2019-03-11T09:40:45.733Z,22.04
2019-03-11T09:41:45.748Z,22.05
2019-03-11T09:42:45.770Z,22.05
2019-03-11T09:43:45.760Z,22.05
2019-03-11T09:44:45.794Z,22.03
2019-03-11T09:45:45.786Z,22.05
2019-03-11T09:46:45.805Z,22.05
2019-03-11T09:47:45.815Z,22.04
2019-03-11T09:48:45.848Z,22.05
2019-03-11T09:49:45.820Z,22.05
2019-03-11T09:50:45.858Z,22.06
2019-03-11T09:51:45.836Z,22.06
2019-03-11T09:52:45.872Z,22.06
2019-03-11T09:53:45.894Z,22.06
2019-03-11T09:54:45.879Z,22.05
2019-03-11T09:55:45.949Z,22.05
2019-03-11T09:56:45.935Z,22.06
2019-03-11T09:57:45.937Z,22.06
2019-03-11T09:58:45.930Z,22.06
2019-03-11T09:59:45.937Z,22.06
2019-03-11T10:00:45.979Z,22.06
2019-03-11T10:01:45.990Z,22.06
2019-03-11T10:02:52.083Z,22.06
2019-03-11T10:03:45.997Z,22.06
2019-03-11T10:04:45.989Z,22.07
2019-03-11T10:05:45.977Z,22.06
2019-03-11T10:06:45.992Z,22.06
2019-03-11T10:07:46.136Z,22.06
2019-03-11T10:08:46.042Z,22.06
2019-03-11T10:09:45.993Z,22.05
2019-03-11T10:10:46.003Z,22.07
2019-03-11T10:11:46.033Z,22.06
2019-03-11T10:12:46.020Z,22.06
2019-03-11T10:13:46.054Z,22.07
2019-03-11T10:14:46.044Z,22.07
2019-03-11T10:15:46.040Z,22.06
2019-03-11T10:16:46.033Z,22.07
2019-03-11T10:17:46.041Z,22.07
2019-03-11T10:18:46.039Z,22.07
2019-03-11T10:19:45.978Z,22.06
2019-03-11T10:20:46.014Z,22.05
2019-03-11T10:21:46.034Z,22.06
2019-03-11T10:22:46.039Z,22.06
2019-03-11T10:23:46.040Z,22.06
2019-03-11T10:24:46.016Z,22.07
2019-03-11T10:25:46.019Z,22.06
2019-03-11T10:26:46.009Z,22.06
2019-03-11T10:27:46.017Z,22.06
2019-03-11T10:28:46.030Z,22.07
2019-03-11T10:29:46.024Z,22.06
2019-03-11T10:30:46.025Z,22.07
2019-03-11T10:31:46.023Z,22.07
2019-03-11T10:32:46.049Z,22.07
2019-03-11T10:33:46.079Z,22.08
2019-03-11T10:34:46.082Z,22.08
2019-03-11T10:35:46.027Z,22.07
2019-03-11T10:36:46.068Z,22.07
2019-03-11T10:37:46.038Z,22.09
2019-03-11T10:38:46.032Z,22.09
2019-03-11T10:39:48.002Z,22.09
2019-03-11T10:40:46.088Z,22.10
2019-03-11T10:41:46.083Z,22.11
2019-03-11T10:42:46.082Z,22.11
2019-03-11T10:43:46.047Z,22.09
2019-03-11T10:44:46.048Z,22.10
2019-03-11T10:45:46.032Z,22.11
2019-03-11T10:46:46.048Z,22.12
2019-03-11T10:47:46.021Z,22.12
2019-03-11T10:48:46.089Z,22.12
2019-03-11T10:49:46.043Z,22.12
2019-03-11T10:50:46.139Z,22.12
2019-03-11T10:51:46.076Z,22.12
2019-03-11T10:52:46.068Z,22.13
2019-03-11T10:53:46.055Z,22.12
2019-03-11T10:54:46.041Z,22.12
2019-03-11T10:55:46.073Z,22.14
2019-03-11T10:56:46.088Z,22.14
2019-03-11T10:57:46.116Z,22.14
2019-03-11T10:58:46.049Z,22.13
2019-03-11T10:59:46.072Z,22.14
2019-03-11T11:00:46.004Z,22.15
2019-03-11T11:01:46.129Z,22.14
2019-03-11T11:02:46.078Z,22.14
2019-03-11T11:03:46.073Z,22.15
2019-03-11T11:04:47.938Z,22.15
2019-03-11T11:05:46.077Z,22.16
2019-03-11T11:06:46.063Z,22.16
2019-03-11T11:07:46.106Z,22.15
2019-03-11T11:08:46.069Z,22.16
2019-03-11T11:09:46.131Z,22.15
2019-03-11T11:10:46.093Z,22.15
2019-03-11T11:11:46.077Z,22.16
2019-03-11T11:12:46.078Z,22.16
2019-03-11T11:13:46.120Z,22.16
2019-03-11T11:14:46.059Z,22.16
2019-03-11T11:15:46.069Z,22.16
2019-03-11T11:16:46.575Z,22.16
2019-03-11T11:17:46.140Z,22.16
2019-03-11T11:18:46.161Z,22.16
2019-03-11T11:19:46.071Z,22.15
2019-03-11T11:20:46.069Z,22.16
2019-03-11T11:21:46.088Z,22.16
2019-03-11T11:22:46.106Z,22.16
2019-03-11T11:23:46.108Z,22.16
2019-03-11T11:24:46.104Z,22.17
2019-03-11T11:25:46.126Z,22.16
2019-03-11T11:26:46.134Z,22.16
2019-03-11T11:27:46.143Z,22.16
2019-03-11T11:28:46.116Z,22.15
2019-03-11T11:29:46.092Z,22.15
2019-03-11T11:30:46.099Z,22.15
2019-03-11T11:31:46.147Z,22.16
2019-03-11T11:32:46.145Z,22.15
2019-03-11T11:33:46.172Z,22.16
2019-03-11T11:34:46.121Z,22.16
2019-03-11T11:35:46.147Z,22.15
2019-03-11T11:36:46.103Z,22.15
2019-03-11T11:37:46.109Z,22.17
2019-03-11T11:38:46.116Z,22.19
2019-03-11T11:39:46.120Z,22.20
2019-03-11T11:40:46.167Z,22.21
2019-03-11T11:41:46.167Z,22.22
2019-03-11T11:42:46.121Z,22.22
2019-03-11T11:43:46.187Z,22.23
2019-03-11T11:44:46.161Z,22.24
2019-03-11T11:45:46.118Z,22.24
2019-03-11T11:46:46.129Z,22.25
2019-03-11T11:47:46.120Z,22.24
2019-03-11T11:48:46.167Z,22.25
2019-03-11T11:49:46.116Z,22.24
2019-03-11T11:50:46.161Z,22.26
2019-03-11T11:51:46.121Z,22.25
2019-03-11T11:52:46.149Z,22.25
2019-03-11T11:53:46.181Z,22.26
2019-03-11T11:54:46.151Z,22.24
2019-03-11T11:55:56.827Z,22.25
2019-03-11T11:56:46.160Z,22.26
2019-03-11T11:57:46.197Z,22.26
2019-03-11T11:58:46.180Z,22.25
2019-03-11T11:59:53.998Z,22.26
2019-03-11T12:00:46.174Z,22.25
2019-03-11T12:01:46.173Z,22.26
2019-03-11T12:02:46.203Z,22.25
2019-03-11T12:03:46.229Z,22.24
2019-03-11T12:04:46.145Z,22.26
2019-03-11T12:05:46.136Z,22.26
2019-03-11T12:06:46.194Z,22.26
2019-03-11T12:07:46.162Z,22.26
2019-03-11T12:08:46.201Z,22.26
2019-03-11T12:09:46.165Z,22.27
2019-03-11T12:10:46.182Z,22.26
2019-03-11T12:11:46.172Z,22.26
2019-03-11T12:12:46.200Z,22.28
2019-03-11T12:13:46.172Z,22.28
2019-03-11T12:14:46.243Z,22.28
2019-03-11T12:15:46.223Z,22.27
2019-03-11T12:16:46.155Z,22.27
2019-03-11T12:17:46.206Z,22.28
2019-03-11T12:18:46.153Z,22.29
2019-03-11T12:19:46.202Z,22.29
2019-03-11T12:20:46.160Z,22.29
2019-03-11T12:21:46.204Z,22.29
2019-03-11T12:22:46.204Z,22.30
2019-03-11T12:23:46.816Z,22.30
2019-03-11T12:24:46.269Z,22.31
2019-03-11T12:25:46.217Z,22.30
2019-03-11T12:26:46.364Z,22.30
2019-03-11T12:27:53.831Z,22.30
2019-03-11T12:28:46.216Z,22.31
2019-03-11T12:29:46.231Z,22.30
2019-03-11T12:30:46.195Z,22.30
2019-03-11T12:31:46.185Z,22.31
2019-03-11T12:32:46.191Z,22.30
2019-03-11T12:33:46.180Z,22.30
2019-03-11T12:34:46.188Z,22.30
2019-03-11T12:35:46.207Z,22.30
2019-03-11T12:36:46.214Z,22.30
2019-03-11T12:37:46.230Z,22.30
2019-03-11T12:38:46.214Z,22.31
2019-03-11T12:39:46.187Z,22.30
2019-03-11T12:40:46.243Z,22.28
2019-03-11T12:41:46.303Z,22.30
2019-03-11T12:42:46.209Z,22.31
2019-03-11T12:43:46.217Z,22.29
2019-03-11T12:44:46.239Z,22.28
2019-03-11T12:45:46.271Z,22.30
2019-03-11T12:46:46.213Z,22.29
2019-03-11T12:47:46.232Z,22.29
2019-03-11T12:48:46.221Z,22.28
2019-03-11T12:49:46.254Z,22.29
2019-03-11T12:50:46.305Z,22.30
2019-03-11T12:51:50.025Z,22.29
2019-03-11T12:52:46.256Z,22.28